createdAt,value
2023-04-03T00:01:19.929Z,6.01
2023-04-03T00:04:07.902Z,6.00
2023-04-03T00:06:42.329Z,5.98
2023-04-03T00:09:12.142Z,5.97
2023-04-03T00:11:42.986Z,5.99
2023-04-03T00:14:11.158Z,5.99
2023-04-03T00:16:57.957Z,5.99
2023-04-03T00:19:26.710Z,5.98
2023-04-03T00:21:55.263Z,5.99
2023-04-03T00:24:23.435Z,5.96
2023-04-03T00:26:59.174Z,5.96
2023-04-03T00:29:28.949Z,5.99
2023-04-03T00:31:57.108Z,5.99
2023-04-03T00:34:26.447Z,6.00
2023-04-03T00:36:55.655Z,6.01
2023-04-03T00:39:23.913Z,6.00
2023-04-03T00:41:57.069Z,6.00
2023-04-03T00:44:34.577Z,6.01
2023-04-03T00:47:03.817Z,6.01
2023-04-03T00:49:32.123Z,5.99
2023-04-03T00:52:00.593Z,5.98
2023-04-03T00:54:29.864Z,5.97
2023-04-03T00:56:58.749Z,5.96
2023-04-03T00:59:32.381Z,5.95
2023-04-03T01:02:02.107Z,5.93
2023-04-03T01:04:39.520Z,5.93
2023-04-03T01:07:12.080Z,5.93
2023-04-03T01:09:41.252Z,5.94
2023-04-03T01:12:26.520Z,5.93
2023-04-03T01:14:58.924Z,5.93
2023-04-03T01:17:33.102Z,5.91
2023-04-03T01:20:32.159Z,5.93
2023-04-03T01:23:10.829Z,5.92
2023-04-03T01:25:40.098Z,5.90
2023-04-03T01:28:10.030Z,5.88
2023-04-03T01:31:08.884Z,5.89
2023-04-03T01:33:39.036Z,5.88
2023-04-03T01:36:09.887Z,5.87
2023-04-03T01:38:39.497Z,5.88
2023-04-03T01:41:07.993Z,5.90
2023-04-03T01:43:36.193Z,5.91
2023-04-03T01:46:04.824Z,5.91
2023-04-03T01:48:33.889Z,5.91
2023-04-03T01:51:02.138Z,5.91
2023-04-03T01:53:30.590Z,5.92
2023-04-03T01:56:01.440Z,5.91
2023-04-03T01:58:30.512Z,5.90
2023-04-03T02:00:58.626Z,5.92
2023-04-03T02:03:28.810Z,5.90
2023-04-03T02:05:57.141Z,5.88
2023-04-03T02:08:25.217Z,5.87
2023-04-03T02:10:54.102Z,5.88
2023-04-03T02:13:22.212Z,5.89
2023-04-03T02:15:52.049Z,5.88
2023-04-03T02:18:20.887Z,5.87
2023-04-03T02:20:48.988Z,5.85
2023-04-03T02:23:17.538Z,5.85
2023-04-03T02:25:45.825Z,5.87
2023-04-03T02:28:16.964Z,5.87
2023-04-03T02:30:46.259Z,5.87
2023-04-03T02:33:16.549Z,5.86
2023-04-03T02:35:54.243Z,5.85
2023-04-03T02:38:23.580Z,5.86
2023-04-03T02:40:53.112Z,5.86
2023-04-03T02:43:21.686Z,5.87
2023-04-03T02:45:49.834Z,5.86
2023-04-03T02:48:18.713Z,5.85
2023-04-03T02:50:46.986Z,5.85
2023-04-03T02:53:16.347Z,5.87
2023-04-03T02:55:47.209Z,5.86
2023-04-03T02:58:16.305Z,5.86
2023-04-03T03:00:44.560Z,5.87
2023-04-03T03:03:14.596Z,5.88
2023-04-03T03:05:42.795Z,5.88
2023-04-03T03:08:11.200Z,5.86
2023-04-03T03:10:39.957Z,5.86
2023-04-03T03:13:09.150Z,5.88
2023-04-03T03:15:37.278Z,5.90
2023-04-03T03:18:05.899Z,5.92
2023-04-03T03:20:34.091Z,5.93
2023-04-03T03:23:02.403Z,5.93
2023-04-03T03:25:30.726Z,5.92
2023-04-03T03:27:59.210Z,5.93
2023-04-03T03:30:27.800Z,5.93
2023-04-03T03:32:56.087Z,5.92
2023-04-03T03:35:24.234Z,5.93
2023-04-03T03:37:55.568Z,5.94
2023-04-03T03:40:24.024Z,5.94
2023-04-03T03:42:52.197Z,5.95
2023-04-03T03:45:20.313Z,5.94
2023-04-03T03:47:48.881Z,5.94
2023-04-03T03:50:17.206Z,5.93
2023-04-03T03:52:45.929Z,5.93
2023-04-03T03:55:14.466Z,5.93
2023-04-03T03:57:43.056Z,5.94
2023-04-03T04:00:12.703Z,5.93
2023-04-03T04:02:47.963Z,5.93
2023-04-03T04:05:18.751Z,5.92
2023-04-03T04:07:47.014Z,5.94
2023-04-03T04:10:15.449Z,5.94
2023-04-03T04:12:44.182Z,5.95
2023-04-03T04:15:14.327Z,5.97
2023-04-03T04:17:44.054Z,5.99
2023-04-03T04:20:13.565Z,6.00
2023-04-03T04:22:42.763Z,6.02
2023-04-03T04:25:11.506Z,6.04
2023-04-03T04:27:40.516Z,6.06
2023-04-03T04:30:12.894Z,6.09
2023-04-03T04:32:41.909Z,6.11
2023-04-03T04:35:10.857Z,6.14
2023-04-03T04:37:41.890Z,6.15
2023-04-03T04:40:11.018Z,6.14
2023-04-03T04:42:40.777Z,6.16
2023-04-03T04:45:09.367Z,6.17
2023-04-03T04:47:38.689Z,6.19
2023-04-03T04:50:08.100Z,6.19
2023-04-03T04:52:37.251Z,6.17
2023-04-03T04:55:06.379Z,6.18
2023-04-03T04:57:36.670Z,6.19
2023-04-03T05:00:31.063Z,6.22
2023-04-03T05:03:00.828Z,6.25
2023-04-03T05:05:29.742Z,6.24
2023-04-03T05:07:58.233Z,6.25
2023-04-03T05:10:26.964Z,6.27
2023-04-03T05:12:55.470Z,6.33
2023-04-03T05:15:23.607Z,6.38
2023-04-03T05:17:52.728Z,6.40
2023-04-03T05:20:21.365Z,6.41
2023-04-03T05:22:49.850Z,6.39
2023-04-03T05:25:18.680Z,6.39
2023-04-03T05:27:47.263Z,6.38
2023-04-03T05:30:15.488Z,6.39
2023-04-03T05:32:45.722Z,6.38
2023-04-03T05:35:24.235Z,6.38
2023-04-03T05:37:54.101Z,6.42
2023-04-03T05:40:22.355Z,6.48
2023-04-03T05:42:54.659Z,6.52
2023-04-03T05:45:24.209Z,6.57
2023-04-03T05:47:53.025Z,6.62
2023-04-03T05:50:21.372Z,6.66
2023-04-03T05:52:52.231Z,6.68
2023-04-03T05:55:20.957Z,6.71
2023-04-03T05:57:49.130Z,6.73
2023-04-03T06:00:17.730Z,6.75
2023-04-03T06:02:51.812Z,6.74
2023-04-03T06:05:23.760Z,6.75
2023-04-03T06:07:52.165Z,6.77
2023-04-03T06:10:21.386Z,6.79
2023-04-03T06:12:51.475Z,6.81
2023-04-03T06:15:19.717Z,6.85
2023-04-03T06:17:50.205Z,6.87
2023-04-03T06:20:18.610Z,6.88
2023-04-03T06:22:47.059Z,6.89
2023-04-03T06:25:15.549Z,6.91
2023-04-03T06:27:44.072Z,6.94
2023-04-03T06:30:13.239Z,7.00
2023-04-03T06:32:42.585Z,7.03
2023-04-03T06:35:11.820Z,7.09
2023-04-03T06:37:40.153Z,7.14
2023-04-03T06:40:15.352Z,7.18
2023-04-03T06:42:44.440Z,7.19
2023-04-03T06:45:14.333Z,7.19
2023-04-03T06:47:43.555Z,7.19
2023-04-03T06:50:12.709Z,7.20
2023-04-03T06:52:42.474Z,7.21
2023-04-03T06:55:13.544Z,7.23
2023-04-03T06:57:42.428Z,7.25
2023-04-03T07:00:12.108Z,7.25
2023-04-03T07:02:55.076Z,7.25
2023-04-03T07:05:23.526Z,7.27
2023-04-03T07:07:52.535Z,7.30
2023-04-03T07:10:21.199Z,7.33
2023-04-03T07:12:49.284Z,7.34
2023-04-03T07:15:17.500Z,7.35
2023-04-03T07:17:45.834Z,7.34
2023-04-03T07:20:14.228Z,7.32
2023-04-03T07:22:43.165Z,7.33
2023-04-03T07:25:11.889Z,7.34
2023-04-03T07:27:40.386Z,7.38
2023-04-03T07:30:10.575Z,7.42
2023-04-03T07:32:39.628Z,7.43
2023-04-03T07:35:07.993Z,7.42
2023-04-03T07:37:36.663Z,7.43
2023-04-03T07:40:05.875Z,7.46
2023-04-03T07:42:34.109Z,7.52
2023-04-03T07:45:02.940Z,7.56
2023-04-03T07:47:32.900Z,7.59
2023-04-03T07:50:01.402Z,7.63
2023-04-03T07:52:32.450Z,7.66
2023-04-03T07:55:00.811Z,7.70
2023-04-03T07:57:29.770Z,7.72
2023-04-03T07:59:57.928Z,7.73
2023-04-03T08:02:26.332Z,7.73
2023-04-03T08:04:54.650Z,7.75
2023-04-03T08:07:23.021Z,7.75
2023-04-03T08:09:52.950Z,7.76
2023-04-03T08:12:21.573Z,7.78
2023-04-03T08:14:49.705Z,7.79
2023-04-03T08:17:19.506Z,7.82
2023-04-03T08:19:47.622Z,7.85
2023-04-03T08:22:17.041Z,7.90
2023-04-03T08:24:52.534Z,7.96
2023-04-03T08:27:28.351Z,8.04
2023-04-03T08:29:58.054Z,8.11
2023-04-03T08:32:27.000Z,8.15
2023-04-03T08:34:55.597Z,8.18
2023-04-03T08:37:28.267Z,8.21
2023-04-03T08:39:56.744Z,8.24
2023-04-03T08:42:43.741Z,8.29
2023-04-03T08:45:13.787Z,8.35
2023-04-03T08:47:47.334Z,8.43
2023-04-03T08:50:19.764Z,8.46
2023-04-03T08:52:50.050Z,8.49
2023-04-03T08:55:24.623Z,8.54
2023-04-03T08:58:02.574Z,8.56
2023-04-03T09:00:41.194Z,8.57
2023-04-03T09:03:13.910Z,8.57
2023-04-03T09:05:48.615Z,8.65
2023-04-03T09:08:42.884Z,8.75
2023-04-03T09:11:32.626Z,8.85
2023-04-03T09:14:23.854Z,8.94
2023-04-03T09:17:06.360Z,8.97
2023-04-03T09:19:56.035Z,8.98
2023-04-03T09:22:30.100Z,9.00
2023-04-03T09:25:01.429Z,9.03
2023-04-03T09:27:29.896Z,9.08
2023-04-03T09:29:58.209Z,9.11
2023-04-03T09:32:34.711Z,9.17
2023-04-03T09:35:35.844Z,9.24
2023-04-03T09:38:12.821Z,9.33
2023-04-03T09:40:44.555Z,9.36
2023-04-03T09:43:18.987Z,9.37
2023-04-03T09:45:47.582Z,9.40
2023-04-03T09:48:16.711Z,9.44
2023-04-03T09:50:51.536Z,9.43
2023-04-03T09:53:39.940Z,9.34
2023-04-03T09:56:17.094Z,9.32
2023-04-03T09:59:07.510Z,9.34
2023-04-03T10:01:39.795Z,9.36
2023-04-03T10:04:15.414Z,9.37
2023-04-03T10:06:48.208Z,9.37
2023-04-03T10:09:24.555Z,9.35
2023-04-03T10:12:00.914Z,9.27
2023-04-03T10:14:29.943Z,9.21
2023-04-03T10:17:22.010Z,9.21
2023-04-03T10:19:58.892Z,9.24
2023-04-03T10:22:49.433Z,9.32
2023-04-03T10:25:31.446Z,9.39
2023-04-03T10:28:03.114Z,9.42
2023-04-03T10:30:34.176Z,9.42
2023-04-03T10:33:03.438Z,9.44
2023-04-03T10:35:38.495Z,9.41
2023-04-03T10:38:44.545Z,9.34
2023-04-03T10:41:26.383Z,9.20
2023-04-03T10:44:05.946Z,9.08
2023-04-03T10:50:13.759Z,8.80
2023-04-03T10:52:51.349Z,8.73
2023-04-03T10:55:39.758Z,8.64
2023-04-03T10:58:08.616Z,8.56
2023-04-03T11:00:40.720Z,8.54
2023-04-03T11:03:26.822Z,8.50
2023-04-03T11:05:55.023Z,8.52
2023-04-03T11:08:40.895Z,8.54
2023-04-03T11:11:22.721Z,8.53
2023-04-03T11:14:11.616Z,8.53
2023-04-03T11:16:50.955Z,8.49
2023-04-03T11:19:25.767Z,8.46
2023-04-03T11:22:32.842Z,8.44
2023-04-03T11:25:16.512Z,8.41
2023-04-03T11:27:57.260Z,8.33
2023-04-03T11:30:49.540Z,8.29
2023-04-03T11:33:33.115Z,8.24
2023-04-03T11:36:32.623Z,8.20
2023-04-03T11:39:26.827Z,8.17
2023-04-03T11:42:14.702Z,8.12
2023-04-03T11:44:43.250Z,8.08
2023-04-03T11:47:12.789Z,8.02
2023-04-03T11:50:01.438Z,8.00
2023-04-03T11:52:41.453Z,7.99
2023-04-03T11:55:21.398Z,7.96
2023-04-03T11:57:59.619Z,7.88
2023-04-03T12:00:52.550Z,7.79
2023-04-03T12:03:24.441Z,7.68
2023-04-03T12:06:08.234Z,7.59
2023-04-03T12:08:41.498Z,7.46
2023-04-03T12:11:09.669Z,7.39
2023-04-03T12:13:51.258Z,7.33
2023-04-03T12:16:23.071Z,7.29
2023-04-03T12:19:26.531Z,7.25
2023-04-03T12:22:00.592Z,7.23
2023-04-03T12:24:43.573Z,7.22
2023-04-03T12:27:28.123Z,7.20
2023-04-03T12:30:19.596Z,7.14
2023-04-03T12:33:05.734Z,7.05
2023-04-03T12:36:09.754Z,6.98
2023-04-03T12:39:06.166Z,6.93
2023-04-03T12:42:06.152Z,6.87
2023-04-03T12:44:46.165Z,6.82
2023-04-03T12:47:27.352Z,6.80
2023-04-03T12:49:56.316Z,6.78
2023-04-03T12:52:47.469Z,6.79
2023-04-03T12:55:20.337Z,6.76
2023-04-03T12:57:48.678Z,6.73
2023-04-03T13:00:43.640Z,6.73
2023-04-03T13:03:30.710Z,6.63
2023-04-03T13:06:03.144Z,6.56
2023-04-03T13:08:31.907Z,6.52
2023-04-03T13:11:07.434Z,6.46
2023-04-03T13:13:37.035Z,6.35
2023-04-03T13:16:12.259Z,6.22
2023-04-03T13:18:43.292Z,6.10
2023-04-03T13:21:19.849Z,6.07
2023-04-03T13:23:51.529Z,6.04
2023-04-03T13:26:22.404Z,5.98
2023-04-03T13:28:52.645Z,5.93
2023-04-03T13:31:27.803Z,5.91
2023-04-03T13:34:19.548Z,5.92
2023-04-03T13:37:00.015Z,5.88
2023-04-03T13:39:37.976Z,5.85
2023-04-03T13:42:30.797Z,5.78
2023-04-03T13:45:12.660Z,5.74
2023-04-03T13:47:43.102Z,5.72
2023-04-03T13:50:19.677Z,5.69
2023-04-03T13:52:54.334Z,5.67
2023-04-03T13:55:31.984Z,5.64
2023-04-03T13:58:02.828Z,5.59
2023-04-03T14:00:37.012Z,5.54
2023-04-03T14:03:24.196Z,5.53
2023-04-03T14:05:52.247Z,5.51
2023-04-03T14:08:26.690Z,5.50
2023-04-03T14:11:04.575Z,5.49
2023-04-03T14:13:33.041Z,5.49
2023-04-03T14:16:15.451Z,5.46
2023-04-03T14:18:48.203Z,5.38
2023-04-03T14:21:17.178Z,5.28
2023-04-03T14:23:45.837Z,5.21
2023-04-03T14:26:22.837Z,5.14
2023-04-03T14:28:54.428Z,5.07
2023-04-03T14:31:23.042Z,5.04
2023-04-03T14:33:52.197Z,4.99
2023-04-03T14:36:26.423Z,4.95
2023-04-03T14:38:55.323Z,4.89
2023-04-03T14:41:25.415Z,4.81
2023-04-03T14:43:54.603Z,4.79
2023-04-03T14:46:55.587Z,4.77
2023-04-03T14:49:29.134Z,4.72
2023-04-03T14:51:58.562Z,4.69
2023-04-03T14:54:28.788Z,4.66
2023-04-03T14:56:58.705Z,4.63
2023-04-03T14:59:27.429Z,4.62
2023-04-03T15:01:55.639Z,4.59
2023-04-03T15:04:23.946Z,4.57
2023-04-03T15:06:53.787Z,4.54
2023-04-03T15:09:26.971Z,4.54
2023-04-03T15:11:55.763Z,4.51
2023-04-03T15:14:35.480Z,4.48
2023-04-03T15:17:06.379Z,4.44
2023-04-03T15:19:37.765Z,4.41
2023-04-03T15:22:06.156Z,4.39
2023-04-03T15:24:34.426Z,4.37
2023-04-03T15:27:03.058Z,4.37
2023-04-03T15:29:31.494Z,4.35
2023-04-03T15:31:59.757Z,4.36
2023-04-03T15:34:28.884Z,4.29
2023-04-03T15:37:01.073Z,4.25
2023-04-03T15:39:29.540Z,4.21
2023-04-03T15:42:00.882Z,4.18
2023-04-03T15:44:29.652Z,4.12
2023-04-03T15:46:57.658Z,4.06
2023-04-03T15:49:26.012Z,4.03
2023-04-03T15:51:54.227Z,3.96
2023-04-03T15:54:22.363Z,3.91
2023-04-03T15:56:51.088Z,3.86
2023-04-03T15:59:20.251Z,3.83
2023-04-03T16:01:49.134Z,3.79
2023-04-03T16:04:18.637Z,3.77
2023-04-03T16:06:50.525Z,3.76
2023-04-03T16:09:19.029Z,3.76
2023-04-03T16:11:47.665Z,3.77
2023-04-03T16:14:23.041Z,3.73
2023-04-03T16:16:51.495Z,3.64
2023-04-03T16:19:22.271Z,3.61
2023-04-03T16:21:51.565Z,3.56
2023-04-03T16:24:20.471Z,3.50
2023-04-03T16:26:56.548Z,3.49
2023-04-03T16:29:24.608Z,3.45
2023-04-03T16:31:56.037Z,3.39
2023-04-03T16:34:26.701Z,3.31
2023-04-03T16:36:55.023Z,3.23
2023-04-03T16:39:23.196Z,3.19
2023-04-03T16:41:51.560Z,3.18
2023-04-03T16:44:19.973Z,3.17
2023-04-03T16:46:48.511Z,3.16
2023-04-03T16:49:16.857Z,3.14
2023-04-03T16:51:46.139Z,3.11
2023-04-03T16:54:14.787Z,3.11
2023-04-03T16:56:44.180Z,3.08
2023-04-03T16:59:12.170Z,3.08
2023-04-03T17:01:40.374Z,3.09
2023-04-03T17:04:08.675Z,3.11
2023-04-03T17:06:37.853Z,3.12
2023-04-03T17:09:06.415Z,3.15
2023-04-03T17:14:07.726Z,3.14
2023-04-03T17:16:36.886Z,3.09
2023-04-03T17:19:05.507Z,3.09
2023-04-03T17:21:33.834Z,3.11
2023-04-03T17:24:09.599Z,3.09
2023-04-03T17:26:38.728Z,3.07
2023-04-03T17:29:06.982Z,3.04
2023-04-03T17:31:36.075Z,3.06
2023-04-03T17:34:04.691Z,3.06
2023-04-03T17:36:38.443Z,3.05
2023-04-03T17:39:06.540Z,2.98
2023-04-03T17:41:34.621Z,2.96
2023-04-03T17:44:02.968Z,2.96
2023-04-03T17:46:32.607Z,2.97
2023-04-03T17:49:03.619Z,2.94
2023-04-03T17:51:34.534Z,2.93
2023-04-03T17:54:02.892Z,2.92
2023-04-03T17:56:31.551Z,2.92
2023-04-03T17:58:59.806Z,2.95
2023-04-03T18:01:32.627Z,2.98
2023-04-03T18:04:02.729Z,3.00
2023-04-03T18:06:37.334Z,2.99
2023-04-03T18:09:07.880Z,2.97
2023-04-03T18:11:36.127Z,2.93
2023-04-03T18:14:04.800Z,2.91
2023-04-03T18:16:33.068Z,2.91
2023-04-03T18:19:21.302Z,2.90
2023-04-03T18:21:55.462Z,2.91
2023-04-03T18:24:23.671Z,2.92
2023-04-03T18:26:58.999Z,2.89
2023-04-03T18:29:29.009Z,2.90
2023-04-03T18:32:02.420Z,2.90
2023-04-03T18:34:32.477Z,2.90
2023-04-03T18:37:00.828Z,2.86
2023-04-03T18:39:29.642Z,2.85
2023-04-03T18:41:58.906Z,2.86
2023-04-03T18:44:27.004Z,2.82
2023-04-03T18:46:57.062Z,2.78
2023-04-03T18:49:25.645Z,2.75
2023-04-03T18:51:53.761Z,2.74
2023-04-03T18:54:21.931Z,2.72
2023-04-03T18:56:50.006Z,2.69
2023-04-03T18:59:22.121Z,2.70
2023-04-03T19:01:50.315Z,2.70
2023-04-03T19:04:19.002Z,2.68
2023-04-03T19:06:47.039Z,2.63
2023-04-03T19:09:16.645Z,2.59
2023-04-03T19:11:44.973Z,2.58
2023-04-03T19:14:20.968Z,2.59
2023-04-03T19:16:49.380Z,2.61
2023-04-03T19:19:17.530Z,2.63
2023-04-03T19:21:46.133Z,2.63
2023-04-03T19:24:14.239Z,2.62
2023-04-03T19:26:46.246Z,2.61
2023-04-03T19:29:15.021Z,2.59
2023-04-03T19:31:43.166Z,2.55
2023-04-03T19:34:11.641Z,2.48
2023-04-03T19:36:40.211Z,2.43
2023-04-03T19:39:08.291Z,2.41
2023-04-03T19:41:37.734Z,2.41
2023-04-03T19:44:06.704Z,2.42
2023-04-03T19:46:36.490Z,2.40
2023-04-03T19:49:05.123Z,2.38
2023-04-03T19:51:33.643Z,2.38
2023-04-03T19:54:01.907Z,2.36
2023-04-03T19:56:34.785Z,2.31
2023-04-03T19:59:02.960Z,2.32
2023-04-03T20:01:31.857Z,2.31
2023-04-03T20:04:02.153Z,2.28
2023-04-03T20:06:31.053Z,2.28
2023-04-03T20:08:59.352Z,2.28
2023-04-03T20:11:35.845Z,2.26
2023-04-03T20:14:04.543Z,2.28
2023-04-03T20:16:32.882Z,2.28
2023-04-03T20:19:01.496Z,2.27
2023-04-03T20:21:31.372Z,2.26
2023-04-03T20:24:00.633Z,2.25
2023-04-03T20:26:29.899Z,2.25
2023-04-03T20:28:58.997Z,2.22
2023-04-03T20:31:28.353Z,2.20
2023-04-03T20:33:57.625Z,2.18
2023-04-03T20:36:28.571Z,2.16
2023-04-03T20:38:57.697Z,2.16
2023-04-03T20:41:26.084Z,2.17
2023-04-03T20:43:55.898Z,2.19
2023-04-03T20:46:38.224Z,2.18
2023-04-03T20:49:16.196Z,2.17
2023-04-03T20:51:44.483Z,2.17
2023-04-03T20:54:16.143Z,2.18
2023-04-03T20:56:44.480Z,2.20
2023-04-03T20:59:14.347Z,2.23
2023-04-03T21:01:43.249Z,2.25
2023-04-03T21:04:30.588Z,2.25
2023-04-03T21:07:39.017Z,2.26
2023-04-03T21:10:45.479Z,2.24
2023-04-03T21:13:51.282Z,2.24
2023-04-03T21:16:20.287Z,2.23
2023-04-03T21:18:51.528Z,2.19
2023-04-03T21:21:20.921Z,2.14
2023-04-03T21:23:49.264Z,2.13
2023-04-03T21:26:17.768Z,2.16
2023-04-03T21:28:46.682Z,2.18
2023-04-03T21:31:23.229Z,2.20
2023-04-03T21:33:54.866Z,2.20
2023-04-03T21:36:23.302Z,2.20
2023-04-03T21:38:51.742Z,2.20
2023-04-03T21:41:20.096Z,2.21
2023-04-03T21:43:48.319Z,2.21
2023-04-03T21:46:17.204Z,2.20
2023-04-03T21:48:47.131Z,2.19
2023-04-03T21:51:20.411Z,2.15
2023-04-03T21:53:55.702Z,2.12
2023-04-03T21:56:24.611Z,2.09
2023-04-03T21:58:52.780Z,2.08
2023-04-03T22:01:21.224Z,2.08
2023-04-03T22:03:50.569Z,2.05
2023-04-03T22:06:18.657Z,2.03
2023-04-03T22:08:50.759Z,1.97
2023-04-03T22:11:24.723Z,1.89
2023-04-03T22:13:53.842Z,1.82
2023-04-03T22:16:25.559Z,1.83
2023-04-03T22:18:53.945Z,1.85
2023-04-03T22:21:23.412Z,1.85
2023-04-03T22:23:52.728Z,1.86
2023-04-03T22:26:21.933Z,1.87
2023-04-03T22:28:50.521Z,1.80
2023-04-03T22:31:20.310Z,1.75
2023-04-03T22:33:48.593Z,1.72
2023-04-03T22:36:16.998Z,1.73
2023-04-03T22:38:46.864Z,1.73
2023-04-03T22:41:14.917Z,1.71
2023-04-03T22:43:43.416Z,1.66
2023-04-03T22:46:17.397Z,1.66
2023-04-03T22:48:45.978Z,1.68
2023-04-03T22:51:14.135Z,1.70
2023-04-03T22:53:43.875Z,1.68
2023-04-03T22:56:13.958Z,1.65
2023-04-03T22:58:44.791Z,1.67
2023-04-03T23:01:13.783Z,1.69
2023-04-03T23:03:43.278Z,1.72
2023-04-03T23:06:12.865Z,1.74
2023-04-03T23:08:42.078Z,1.72
2023-04-03T23:11:10.154Z,1.72
2023-04-03T23:13:38.356Z,1.67
2023-04-03T23:16:06.964Z,1.66
2023-04-03T23:18:39.963Z,1.66
2023-04-03T23:21:09.449Z,1.67
2023-04-03T23:23:38.283Z,1.68
2023-04-03T23:26:06.560Z,1.66
2023-04-03T23:28:35.989Z,1.63
2023-04-03T23:31:06.888Z,1.63
2023-04-03T23:33:37.301Z,1.64
2023-04-03T23:36:10.261Z,1.65
2023-04-03T23:38:42.468Z,1.63
2023-04-03T23:41:11.757Z,1.63
2023-04-03T23:43:41.644Z,1.63
2023-04-03T23:46:11.125Z,1.62
2023-04-03T23:48:39.995Z,1.58
2023-04-03T23:51:13.679Z,1.52
2023-04-03T23:53:42.473Z,1.52
2023-04-03T23:56:13.262Z,1.54
2023-04-03T23:58:43.208Z,1.54
